Address 0x92998955efbb37d276b071ef01229676013f7892 5

 
 
Txn Hash Method
Block
From
To
Value [Txn Fee]
0xb52bab7a946effde8c5acae9b61ba4e3e429ade14f9785c65fb6d0401bf03fe8Collect From Til...360825082022-11-26 7:50:095 hrs 23 mins ago0x92998955efbb37d276b071ef01229676013f7892OUT 0x78f6ef4fa55e41b816cbc0f97a2d8743ba8795d90 MATIC0.006115031718 30.985248353
0xe9159cfc10dd1fcb3708d4fb23570bc7b271ea9654cd1d938dab7ed23b8cd82cCollect From Til...360710342022-11-26 1:12:3012 hrs 1 min ago0x92998955efbb37d276b071ef01229676013f7892OUT 0x78f6ef4fa55e41b816cbc0f97a2d8743ba8795d90 MATIC0.003923537526 32.010063693
0x308f73577dba81172ce8341f75c3a9662e3e0de6ba64f7bd8b420aeaebf6c88dCollect From Til...360710082022-11-26 1:11:3812 hrs 2 mins ago0x92998955efbb37d276b071ef01229676013f7892OUT 0x78f6ef4fa55e41b816cbc0f97a2d8743ba8795d90 MATIC0.005920006417 30.000083199
0x8406b6e7981ab996498c4adc7b53f52c18aa5934621a9113a797e7cbe322f3f9Collect From Til...360487652022-11-25 12:21:521 day 52 mins ago0x92998955efbb37d276b071ef01229676013f7892OUT 0x78f6ef4fa55e41b816cbc0f97a2d8743ba8795d90 MATIC0.009064088073 45.932956338
0x7fffd7d3984fdf4ee188e051dabbc19534f6a765f6b754fbf1ce081d78c8cffdCollect From Til...360289432022-11-25 0:49:321 day 12 hrs ago0x92998955efbb37d276b071ef01229676013f7892OUT 0x78f6ef4fa55e41b816cbc0f97a2d8743ba8795d90 MATIC0.005919990041 30.000000209
0xefb3e49038b7d8beea253e1d0d9488b24ed0eacd0ccaf504aa76227e9b0fbb01Buy Tokens360122562022-11-24 15:08:021 day 22 hrs ago0x92998955efbb37d276b071ef01229676013f7892OUT 0x70012d84a1044454cfb2973d5968fa451f94f5cc0 MATIC0.023221873918 115.443835878
0x1c4f1c3bb0e2ad0c43a4f994886b6d99d7cb4c70159c7b2588b6886125f71ef5Approve360122312022-11-24 15:07:121 day 22 hrs ago0x92998955efbb37d276b071ef01229676013f7892OUT Planet IX: IXT Token0 MATIC0.005627191934 121.542873005
0xa909270ca311bb79383b7f9f6b3acfa42b33001347e1ad3224234963fd15274fPlace NFT360103102022-11-24 13:58:531 day 23 hrs ago0x92998955efbb37d276b071ef01229676013f7892OUT 0x78f6ef4fa55e41b816cbc0f97a2d8743ba8795d90 MATIC0.027822031857 97.222721818
0x2156c2120069783454cd4b2854ad1a923a891ab73e584946f26197c97e13fad6Place NFT360102742022-11-24 13:57:371 day 23 hrs ago0x92998955efbb37d276b071ef01229676013f7892OUT 0x78f6ef4fa55e41b816cbc0f97a2d8743ba8795d90 MATIC0.020221760597 97.717988775
0x73b7c3dc0c183a4a7ce4286e0af015e91afc53bcc9277fd7a52d2576f762844bUnstake360088422022-11-24 13:08:252 days 5 mins ago0x92998955efbb37d276b071ef01229676013f7892OUT Planet IX: Territory Staking0 MATIC0.004146094389 108.016214816
0xf686951d49f4bbcc7e53515fcf795ad46d7bf3ed69c5c48342ace15d33aab111Unstake360088422022-11-24 13:08:252 days 5 mins ago0x92998955efbb37d276b071ef01229676013f7892OUT Planet IX: Territory Staking0 MATIC0.005306622781 138.250906141
0xb5e9a67261c1544810ea23b6d638948d67f903313bbc2747de83b19088744a2fUnstake360088422022-11-24 13:08:252 days 5 mins ago0x92998955efbb37d276b071ef01229676013f7892OUT Planet IX: Territory Staking0 MATIC0.004903741721 127.754838506
0x973e7b05f27496ecd2dcd8b0d9b5bbe0d728ca346de98c753d9191b00fb2cb76Unstake360088422022-11-24 13:08:252 days 5 mins ago0x92998955efbb37d276b071ef01229676013f7892OUT Planet IX: Territory Staking0 MATIC0.004080316131 106.302525322
0x08e0c2d71494b5df99fbe1d27a1b2b7836e228cd1c1c83219e5cb7143b6dab94Unstake360088422022-11-24 13:08:252 days 5 mins ago0x92998955efbb37d276b071ef01229676013f7892OUT Planet IX: Territory Staking0 MATIC0.003210372057 83.638288297
0xd9ff49ba9e5bcd0d6cc73e66a5ff80b7d5e50a88e0550e76d31e7429d22e8d91Unstake360088422022-11-24 13:08:252 days 5 mins ago0x92998955efbb37d276b071ef01229676013f7892OUT Planet IX: Territory Staking0 MATIC0.013774974449 74.830236627
0x5692371a8a909d503e9e455c4ba527abf6bf2869051b18fd54db1dfddcb17878Claim All360084232022-11-24 12:53:592 days 20 mins ago0x92998955efbb37d276b071ef01229676013f7892OUT Planet IX: Territory Staking0 MATIC0.012309482087 80.275740756
0x8f9c20292e6691f17386cccd36979a68d075b24bab62f545926013a291befd0dRemove NFT360083702022-11-24 12:52:092 days 21 mins ago0x92998955efbb37d276b071ef01229676013f7892OUT 0x78f6ef4fa55e41b816cbc0f97a2d8743ba8795d90 MATIC0.010038386942 75.144376311
0x7e84f37e1d0fe2b6a95525fd2c09b7c2c27c68e89175a05bc551b72206dc48f7Claim Order360079972022-11-24 12:39:192 days 34 mins ago0x92998955efbb37d276b071ef01229676013f7892OUT 0x9c31ada541dfa3e867460be0572c1a57311df6ff0 MATIC0.009196419955 58.79838341
0xfb01da9a15485f6304da67012c065f8a0feb5ae3df15e6a2e2def6de8e8bd0f7Speed Up Order360079762022-11-24 12:38:372 days 35 mins ago0x92998955efbb37d276b071ef01229676013f7892OUT 0x9c31ada541dfa3e867460be0572c1a57311df6ff0 MATIC0.006045573731 55.36543887
0xc3633cea1d03e5649ca812a3b7e8f28e5c01b74525e7c38be87c74c7bee82fd5Send1155To Addre...360072172022-11-24 12:12:312 days 1 hr ago0x92998955efbb37d276b071ef01229676013f7892OUT 0x21b1493fcf71b200d5f2ede6ea01b9a57ee00e970 MATIC0.0030103550
0x0da57c985fd84049bb62c9f36196a0492afed0c640238cece2b1e5c567e75cc60x9a2b8115360071892022-11-24 12:11:352 days 1 hr ago0x92998955efbb37d276b071ef01229676013f7892OUT BitKeep: Exchange0.40776 MATIC0.012233550
0x8562937f7aa62ca9a7e12cd2bbd6011a38bcc4f742c6abd871217444640a6a6c0x9a2b8115360071562022-11-24 12:10:252 days 1 hr ago0x92998955efbb37d276b071ef01229676013f7892OUT BitKeep: Exchange1.67 MATIC0.012474150
0x0f1eabd5fc6edef879513c945e63755fa2f2a580ef203ed7c329b522e438f2feSend1155To Addre...360033462022-11-24 9:57:192 days 3 hrs ago0x92998955efbb37d276b071ef01229676013f7892OUT 0x21b1493fcf71b200d5f2ede6ea01b9a57ee00e970 MATIC0.0030109550
0x41eb39848ddfe3c12f9c92f93a686b1b6ac6f79a6d72b7a5642ac50e0ec898d2Collect From Til...360023932022-11-24 9:22:242 days 3 hrs ago0x92998955efbb37d276b071ef01229676013f7892OUT 0x78f6ef4fa55e41b816cbc0f97a2d8743ba8795d90 MATIC0.028178932172 127.099302564
0x1e786830b479bbaf9a166b34a5e79b31d7d742dcb1472ef9290382107a3d9063Sell NFT With Si...359890412022-11-24 1:32:092 days 11 hrs ago0x92998955efbb37d276b071ef01229676013f7892OUT Planet IX: Marketplace0 MATIC0.011218770007 30.000000021
[ Download CSV Export 
Latest 25 internal transaction
Parent Txn Hash Block From To Value
0xcaf8021174487deb00cd10c5c6188aabedc0183867d27250187ac964dc831bc8337833782022-10-01 5:31:5356 days 7 hrs ago 0x8ebe93171b39f73805ab5650c0569c6ec3dccced0x92998955efbb37d276b071ef01229676013f7892205.8 MATIC
0xfb634a53d8f1bdddffae59d855564a2b667dd6ad44242e765382d9c6650dcea2329312782022-09-10 14:01:5376 days 23 hrs ago 0xd08e15c53a19aef64059a09746c0e17d62ff2b970x92998955efbb37d276b071ef01229676013f789212.396222329941185586 MATIC
0xb32eb68e26190e0f6bb7d856280190dfea6d96ce94372d896c4acb8c44a5b021299694232022-06-25 4:34:08154 days 8 hrs ago 0xc590175e458b83680867afd273527ff58f74c02b0x92998955efbb37d276b071ef01229676013f78924.931493707533534587 MATIC
0xa67645a792a3a377ba2c89da41f118bd4daad7f9e02d5250a84292926b037e67284503992022-05-18 1:27:50192 days 11 hrs ago 0xc590175e458b83680867afd273527ff58f74c02b0x92998955efbb37d276b071ef01229676013f78925.877379096378497472 MATIC
0xc61609cfb590136e3402019f840129c8dfddb35530e239ac16091b0fb13d1fe0280680722022-05-08 10:14:18202 days 2 hrs ago 0xc590175e458b83680867afd273527ff58f74c02b0x92998955efbb37d276b071ef01229676013f78924.739371386664648851 MATIC
0x22dc2ddad1126c2ff7eb40baf80a2abe5ebc2c7a10ce99e2104dd29dd6abe8ef280560182022-05-08 2:49:18202 days 10 hrs ago 0xc590175e458b83680867afd273527ff58f74c02b0x92998955efbb37d276b071ef01229676013f78921.61774619261594164 MATIC
0x70cd6a496cb45c890cdaacbc5be86f3531290296e17e14fc51cd09fcf102f620275786472022-04-26 1:12:33214 days 12 hrs ago 0xc590175e458b83680867afd273527ff58f74c02b0x92998955efbb37d276b071ef01229676013f78921.842517676531373757 MATIC
0x31092ce8480d5836a557e4eb80410cc6967b4e8e687d38fe73f2e5a7025f41ab270301362022-04-12 1:48:18228 days 11 hrs ago 0xc590175e458b83680867afd273527ff58f74c02b0x92998955efbb37d276b071ef01229676013f78922.360851372160215383 MATIC
0xb2f5d2c5179788e8c7ee9c536ed5598682c3722feef345b0a34bed3caf462f6a268605112022-04-07 17:57:35232 days 19 hrs ago 0xc590175e458b83680867afd273527ff58f74c02b0x92998955efbb37d276b071ef01229676013f78921.187766323552266124 MATIC
0xd184988aaa3d1ea3f214ae124d1ca81a4f682c7bd85e0dc65322b6dd8e2e32e3264367252022-03-27 21:41:39243 days 15 hrs ago 0xc590175e458b83680867afd273527ff58f74c02b0x92998955efbb37d276b071ef01229676013f78922.72968792690527346 MATIC
0x13f77f354cfd0833ee230dc889225f36f0afde70e5938eb412377859205e0ffd255480902022-03-03 22:28:01267 days 14 hrs ago 0xc590175e458b83680867afd273527ff58f74c02b0x92998955efbb37d276b071ef01229676013f7892353.18312486875455226 MATIC
0x0c77e110710679f5eb8e1bddb757a6f92b52f1f8df17cbc68d60415404ddb225250174912022-02-16 17:38:03282 days 19 hrs ago Multisender.app0x92998955efbb37d276b071ef01229676013f78921 MATIC
0xb15ca939001efe9d5a3bb57c47122e3a5569f4a915bc91e13357ef70b7d1e2da247972912022-02-11 2:16:30288 days 10 hrs ago 0xc590175e458b83680867afd273527ff58f74c02b0x92998955efbb37d276b071ef01229676013f7892493.820213453000164924 MATIC
0x2539f91f4590ad1e85b66c3a61569822f16f5213b2f955a9f78a9393c8c0340a228604202021-12-23 8:00:51338 days 5 hrs ago 0xc590175e458b83680867afd273527ff58f74c02b0x92998955efbb37d276b071ef01229676013f789231.615525467612158011 MATIC
0x2cccca6c22a8ab7316e4c1c6639ab0ee8cf3e1e0563b4c7adee735289a5fba86221167462021-12-04 7:01:42357 days 6 hrs ago 0xc590175e458b83680867afd273527ff58f74c02b0x92998955efbb37d276b071ef01229676013f789255.674536455036556467 MATIC
0x9a30841707329fcd405b0a1424ba1382396873017890f53d7266255a3a39a26c218471612021-11-27 4:30:42364 days 8 hrs ago 0xc590175e458b83680867afd273527ff58f74c02b0x92998955efbb37d276b071ef01229676013f789210.102969237488833267 MATIC
0xc816664f9d7d564e8768297508699113bcd7e52518c900bc6839026379b41403218208582021-11-26 11:59:09365 days 1 hr ago 0xc590175e458b83680867afd273527ff58f74c02b0x92998955efbb37d276b071ef01229676013f789211.040884389792375045 MATIC
0xbcceb54f26ab9c69b98c0caa7c2364bc82ece40881e84e2fe7e3e1fe5160956c218197762021-11-26 11:18:59365 days 1 hr ago 0xc590175e458b83680867afd273527ff58f74c02b0x92998955efbb37d276b071ef01229676013f789210.90405379822148224 MATIC
0xa5c700c2e4f045e5567df30327bfe6df21d48699489ceb02c85fc489afc1209a218169642021-11-26 9:33:25365 days 3 hrs ago 0xc590175e458b83680867afd273527ff58f74c02b0x92998955efbb37d276b071ef01229676013f789210.988971304489685119 MATIC
0xdf190d2a17111d16a93bd7ea954b9610311f4e1d8970e9d478b738230d567415218169612021-11-26 9:33:19365 days 3 hrs ago 0xc590175e458b83680867afd273527ff58f74c02b0x92998955efbb37d276b071ef01229676013f789211.068143630384943388 MATIC
0x87cbb0bd6ed25cf293a20f0f36e5f796e451ae9c9b8e52aab59c431ef86588ff218169612021-11-26 9:33:19365 days 3 hrs ago 0xc590175e458b83680867afd273527ff58f74c02b0x92998955efbb37d276b071ef01229676013f789211.062481815209095948 MATIC
0x1a653a2db49526772c0b2f5d06a69608125c7e37dbf5a3117f0b22625b49e9c1218166392021-11-26 9:20:03365 days 3 hrs ago 0xc590175e458b83680867afd273527ff58f74c02b0x92998955efbb37d276b071ef01229676013f789210.801367895164432059 MATIC
0xb3947e0d891c8ebb445d89b7dd0778dd414ecfdbbf615b7735d108cbbd84cad0218153152021-11-26 8:29:56365 days 4 hrs ago 0xc590175e458b83680867afd273527ff58f74c02b0x92998955efbb37d276b071ef01229676013f789210.186326095205896947 MATIC
0x5158b78cbf2a5b7f59d6c9f82196718ed8f6604bcd95b9115dd4d8d26314883b218151142021-11-26 8:19:23365 days 4 hrs ago SushiSwap: Router0x92998955efbb37d276b071ef01229676013f78929.930789584718360482 MATIC
0xac248841f94538e697ddd19e40017516e281c9463aa816b77521a1c1dcec1d33218064872021-11-26 2:40:34365 days 10 hrs ago SushiSwap: Router0x92998955efbb37d276b071ef01229676013f78927.853113739140814154 MATIC
[ Download CSV Export 
Loading

Contract Name:
0 MATIC

Compiler Version
0

Optimization Enabled:
0 MATIC

Other Settings:
-NA-
Block Transaction Gas Used Reward
Age Block Fee Address BC Fee Address Voting Power Jailed Incoming
Block Uncle Number Difficulty Gas Used Reward
Loading
Loading
Make sure to use the "Vote Down" button for any spammy posts, and the "Vote Up" for interesting conversations.